Time;durP1;ratioP1;P1;durP2;ratioP2;P2;SDS_P1;SDS_P2;PMS_P1;PMS_P2;Temp;Humidity;BMP_temperature;BMP_pressure;BME280_temperature;BME280_humidity;BME280_pressure;Samples;Min_cycle;Max_cycle;Signal;HPM_P1;HPM_P2
2021/12/16 00:06:53;;;;;;;;;39.00;36.75;;;;;;;;5097703;27;45334;-49
2021/12/16 00:35:40;;;;;;;;;39.75;35.50;;;;;;;;5077498;28;45424;-48
2021/12/16 00:38:05;;;;;;;;;36.00;30.75;;;;;;;;5076762;28;45513;-53
2021/12/16 00:40:30;;;;;;;;;41.00;37.50;;;;;;;;5077335;28;46502;-48
2021/12/16 00:43:01;;;;;;;;;39.00;34.00;;;;;;;;5082748;27;45323;-48
2021/12/16 00:45:41;;;;;;;;;41.25;36.50;;;;;;;;5097976;27;45308;-48
2021/12/16 00:48:23;;;;;;;;;33.50;30.75;;;;;;;;5097645;27;45302;-49
2021/12/16 00:56:04;;;;;;;;;34.25;29.50;;;;;;;;5098007;27;45415;-48
2021/12/16 00:58:39;;;;;;;;;0.00;0.00;;;;;;;;5097915;27;45258;-47
2021/12/16 01:01:55;;;;;;;;;36.50;34.50;;;;;;;;5096555;27;45464;-50
2021/12/16 01:07:00;;;;;;;;;40.00;33.25;;;;;;;;5097251;27;45275;-48
2021/12/16 01:39:58;;;;;;;;;37.50;33.00;;;;;;;;5094919;27;45423;-49
2021/12/16 01:42:29;;;;;;;;;32.00;29.50;;;;;;;;5095849;27;45570;-50
2021/12/16 01:50:16;;;;;;;;;38.00;34.50;;;;;;;;5096543;27;45353;-50
2021/12/16 01:53:07;;;;;;;;;40.75;34.75;;;;;;;;5096771;27;45238;-51
2021/12/16 01:55:54;;;;;;;;;38.25;36.50;;;;;;;;5094678;27;45418;-49
2021/12/16 01:58:23;;;;;;;;;39.00;34.75;;;;;;;;5096700;27;45538;-50
2021/12/16 02:01:11;;;;;;;;;41.25;36.25;;;;;;;;5095918;27;45539;-49
2021/12/16 02:03:44;;;;;;;;;41.00;35.25;;;;;;;;5096985;27;45283;-49
2021/12/16 02:06:24;;;;;;;;;32.00;29.50;;;;;;;;5096115;27;45217;-47
2021/12/16 02:08:51;;;;;;;;;39.00;33.50;;;;;;;;5096480;27;45325;-52
2021/12/16 02:11:38;;;;;;;;;31.50;27.75;;;;;;;;5096713;27;45346;-51
2021/12/16 02:35:42;;;;;;;;;29.75;26.00;;;;;;;;5096306;27;45435;-47
2021/12/16 02:38:07;;;;;;;;;34.75;31.25;;;;;;;;5096034;27;46134;-48
2021/12/16 02:40:34;;;;;;;;;31.75;29.00;;;;;;;;5095755;27;45398;-48
2021/12/16 02:43:20;;;;;;;;;31.75;29.25;;;;;;;;5084810;27;45251;-47
2021/12/16 02:48:29;;;;;;;;;39.25;35.00;;;;;;;;5096051;27;45256;-48
2021/12/16 02:50:55;;;;;;;;;35.00;30.75;;;;;;;;5095462;27;45373;-48
2021/12/16 02:53:20;;;;;;;;;42.25;34.25;;;;;;;;5099410;27;45317;-50
2021/12/16 02:55:46;;;;;;;;;35.75;32.50;;;;;;;;5099029;27;45347;-50
2021/12/16 02:58:12;;;;;;;;;32.50;32.50;;;;;;;;5099421;27;45365;-48
2021/12/16 03:00:40;;;;;;;;;37.50;30.75;;;;;;;;5098925;27;45496;-51
2021/12/16 03:03:05;;;;;;;;;33.50;29.75;;;;;;;;5099908;27;45406;-46
2021/12/16 03:05:31;;;;;;;;;34.25;29.50;;;;;;;;5099713;27;45267;-47
2021/12/16 03:07:57;;;;;;;;;38.25;31.00;;;;;;;;5099488;27;45432;-46
2021/12/16 03:10:57;;;;;;;;;27.50;26.25;;;;;;;;5099312;27;45321;-49
2021/12/16 03:13:22;;;;;;;;;32.25;29.75;;;;;;;;5098849;27;45334;-47
2021/12/16 03:21:03;;;;;;;;;30.25;30.00;;;;;;;;5098531;27;45498;-50
2021/12/16 03:28:50;;;;;;;;;36.50;33.00;;;;;;;;5098686;27;46147;-50
2021/12/16 03:31:34;;;;;;;;;38.25;33.25;;;;;;;;5098906;27;45361;-46
2021/12/16 03:38:49;;;;;;;;;33.50;32.50;;;;;;;;5099221;27;45298;-47
2021/12/16 03:41:14;;;;;;;;;31.75;31.25;;;;;;;;5099168;27;45311;-48
2021/12/16 03:43:40;;;;;;;;;38.50;34.50;;;;;;;;5097410;27;45771;-49
2021/12/16 03:48:36;;;;;;;;;36.25;32.75;;;;;;;;5099003;27;46114;-49
2021/12/16 03:51:04;;;;;;;;;36.00;32.00;;;;;;;;5097631;27;45436;-50
2021/12/16 03:53:29;;;;;;;;;34.75;33.25;;;;;;;;5099179;27;45436;-49
2021/12/16 03:55:55;;;;;;;;;29.75;26.25;;;;;;;;5097946;27;45250;-49
2021/12/16 03:58:20;;;;;;;;;38.25;34.00;;;;;;;;5095659;27;46348;-50
2021/12/16 04:00:51;;;;;;;;;33.50;30.25;;;;;;;;5080447;27;45341;-49
2021/12/16 04:03:17;;;;;;;;;28.50;27.75;;;;;;;;5077914;27;45433;-49
2021/12/16 04:05:43;;;;;;;;;33.50;30.00;;;;;;;;5083936;27;45527;-51
2021/12/16 04:08:09;;;;;;;;;37.00;33.25;;;;;;;;5097893;27;46417;-49
2021/12/16 04:10:42;;;;;;;;;33.25;32.75;;;;;;;;5098060;27;45204;-48
2021/12/16 04:13:08;;;;;;;;;36.00;33.50;;;;;;;;5098289;27;45222;-48
2021/12/16 04:15:33;;;;;;;;;28.75;27.75;;;;;;;;5098473;27;45265;-49
2021/12/16 04:17:59;;;;;;;;;31.50;30.75;;;;;;;;5097821;27;46122;-48
2021/12/16 04:20:24;;;;;;;;;29.75;27.25;;;;;;;;5098395;27;45242;-49
2021/12/16 04:22:51;;;;;;;;;32.50;26.75;;;;;;;;5098803;27;45311;-49
2021/12/16 04:25:20;;;;;;;;;41.25;35.75;;;;;;;;5098041;27;45614;-48
2021/12/16 04:27:45;;;;;;;;;37.25;35.25;;;;;;;;5097614;27;45419;-52
2021/12/16 04:30:12;;;;;;;;;38.25;35.25;;;;;;;;5096972;27;45419;-49
2021/12/16 04:32:37;;;;;;;;;41.00;38.50;;;;;;;;5098403;27;45425;-51
2021/12/16 04:35:03;;;;;;;;;44.50;39.50;;;;;;;;5098273;27;45499;-52
2021/12/16 04:37:28;;;;;;;;;41.00;38.00;;;;;;;;5098235;27;47228;-51
2021/12/16 04:39:53;;;;;;;;;51.50;44.00;;;;;;;;5095962;27;45514;-51
2021/12/16 04:42:20;;;;;;;;;42.00;37.50;;;;;;;;5098415;27;45266;-49
2021/12/16 04:44:45;;;;;;;;;46.00;39.25;;;;;;;;5097791;27;45631;-51
2021/12/16 04:47:11;;;;;;;;;44.00;39.00;;;;;;;;5097661;27;46110;-49
2021/12/16 04:49:36;;;;;;;;;48.00;41.25;;;;;;;;5097728;27;45374;-49
2021/12/16 04:52:06;;;;;;;;;48.00;41.50;;;;;;;;5097448;27;45328;-48
2021/12/16 04:54:31;;;;;;;;;43.25;39.00;;;;;;;;5097887;27;45336;-49
2021/12/16 04:56:57;;;;;;;;;43.25;37.75;;;;;;;;5097273;27;45913;-53
2021/12/16 04:59:24;;;;;;;;;45.75;38.25;;;;;;;;5098023;27;45349;-49
2021/12/16 05:01:51;;;;;;;;;48.25;40.25;;;;;;;;5097148;27;45257;-51
2021/12/16 05:04:17;;;;;;;;;35.25;35.00;;;;;;;;5097803;27;45503;-52
2021/12/16 05:06:42;;;;;;;;;47.25;38.25;;;;;;;;5097545;27;45932;-49
2021/12/16 05:09:09;;;;;;;;;43.25;38.75;;;;;;;;5097336;27;45425;-52
2021/12/16 05:11:36;;;;;;;;;42.50;37.50;;;;;;;;5097048;27;45505;-46
2021/12/16 05:14:03;;;;;;;;;42.25;37.25;;;;;;;;5096110;27;45428;-50
2021/12/16 05:16:28;;;;;;;;;45.00;39.00;;;;;;;;5097114;27;46182;-51
2021/12/16 05:18:55;;;;;;;;;45.00;39.00;;;;;;;;5097482;27;45253;-49
2021/12/16 05:26:49;;;;;;;;;39.50;35.25;;;;;;;;5096834;27;45423;-52
2021/12/16 05:29:15;;;;;;;;;39.50;36.75;;;;;;;;5097210;27;45421;-49
2021/12/16 05:31:40;;;;;;;;;40.00;36.50;;;;;;;;5097214;27;45462;-48
2021/12/16 05:34:06;;;;;;;;;35.50;33.50;;;;;;;;5097065;27;45196;-51
2021/12/16 05:36:32;;;;;;;;;36.00;31.50;;;;;;;;5096779;27;46090;-49
2021/12/16 05:38:57;;;;;;;;;39.00;34.75;;;;;;;;5096683;27;45494;-50
2021/12/16 05:41:23;;;;;;;;;31.25;28.00;;;;;;;;5095991;27;45508;-49
2021/12/16 05:43:49;;;;;;;;;26.50;25.75;;;;;;;;5096317;27;45462;-52
2021/12/16 05:46:15;;;;;;;;;33.50;31.75;;;;;;;;5095191;27;46716;-50
2021/12/16 05:48:42;;;;;;;;;25.75;25.75;;;;;;;;5097259;27;45333;-53
2021/12/16 05:51:12;;;;;;;;;33.25;26.00;;;;;;;;5096966;27;45282;-49
2021/12/16 05:53:38;;;;;;;;;28.75;26.25;;;;;;;;5096980;27;45459;-51
2021/12/16 05:56:04;;;;;;;;;28.25;24.75;;;;;;;;5096967;27;45527;-52
2021/12/16 05:58:29;;;;;;;;;28.50;27.50;;;;;;;;5096077;27;45458;-50
2021/12/16 06:01:01;;;;;;;;;28.00;25.75;;;;;;;;5096764;27;45286;-50
2021/12/16 06:03:26;;;;;;;;;27.75;25.50;;;;;;;;5096229;27;45447;-50
2021/12/16 06:05:52;;;;;;;;;27.75;27.75;;;;;;;;5096716;27;45492;-51
2021/12/16 06:08:18;;;;;;;;;26.25;24.00;;;;;;;;5096135;27;45362;-48
2021/12/16 06:13:10;;;;;;;;;32.50;30.00;;;;;;;;5096687;27;45546;-48
2021/12/16 06:28:56;;;;;;;;;31.50;29.75;;;;;;;;5100004;27;45499;-50
2021/12/16 06:31:21;;;;;;;;;34.50;30.75;;;;;;;;5098837;27;45282;-52
2021/12/16 06:33:47;;;;;;;;;39.25;31.75;;;;;;;;5099937;27;45477;-50
2021/12/16 06:36:12;;;;;;;;;32.25;30.50;;;;;;;;5099353;27;46404;-49
2021/12/16 06:38:37;;;;;;;;;36.25;33.50;;;;;;;;5100090;27;45388;-49
2021/12/16 06:41:03;;;;;;;;;34.25;31.75;;;;;;;;5099796;27;45488;-47
2021/12/16 06:43:28;;;;;;;;;37.25;35.00;;;;;;;;5099747;27;45342;-51
2021/12/16 06:45:56;;;;;;;;;42.25;35.75;;;;;;;;5099951;27;46438;-54
2021/12/16 06:48:27;;;;;;;;;40.00;35.00;;;;;;;;5098739;27;45673;-51
2021/12/16 06:50:59;;;;;;;;;54.00;44.75;;;;;;;;5099333;27;45442;-48
2021/12/16 06:53:33;;;;;;;;;37.25;36.25;;;;;;;;5099264;27;45464;-53
2021/12/16 06:56:08;;;;;;;;;35.50;35.00;;;;;;;;5098226;27;45249;-53
2021/12/16 06:58:46;;;;;;;;;38.25;35.50;;;;;;;;5089709;27;45407;-48
2021/12/16 07:01:19;;;;;;;;;41.00;35.50;;;;;;;;5099894;27;45394;-49
2021/12/16 07:03:47;;;;;;;;;35.00;33.25;;;;;;;;5098567;27;45363;-48
2021/12/16 07:06:17;;;;;;;;;37.00;31.00;;;;;;;;5099127;27;46504;-53
2021/12/16 07:08:44;;;;;;;;;42.50;36.25;;;;;;;;5098659;27;45258;-50
2021/12/16 07:11:09;;;;;;;;;38.00;35.25;;;;;;;;5098411;27;45232;-51
2021/12/16 07:13:41;;;;;;;;;36.00;34.00;;;;;;;;5097695;27;45541;-50
2021/12/16 07:16:07;;;;;;;;;37.75;34.75;;;;;;;;5099388;27;46628;-48
2021/12/16 07:18:32;;;;;;;;;27.25;25.75;;;;;;;;5099452;27;45406;-49
2021/12/16 07:20:58;;;;;;;;;37.00;33.50;;;;;;;;5099533;27;45427;-49
2021/12/16 07:23:23;;;;;;;;;33.50;32.50;;;;;;;;5099253;27;45519;-48
2021/12/16 07:25:48;;;;;;;;;35.00;33.50;;;;;;;;5098616;27;46553;-50
2021/12/16 07:28:14;;;;;;;;;35.75;33.75;;;;;;;;5099606;27;45475;-50
2021/12/16 07:30:41;;;;;;;;;43.00;37.50;;;;;;;;5099546;27;45355;-49
2021/12/16 07:33:07;;;;;;;;;34.75;34.00;;;;;;;;5099461;27;45269;-52
2021/12/16 07:35:34;;;;;;;;;42.75;38.25;;;;;;;;5098383;27;46194;-47
2021/12/16 07:37:59;;;;;;;;;37.00;30.25;;;;;;;;5098736;27;45450;-49
2021/12/16 07:40:26;;;;;;;;;31.50;30.25;;;;;;;;5099531;27;45257;-53
2021/12/16 07:45:41;;;;;;;;;38.25;32.50;;;;;;;;5099106;27;45263;-52
2021/12/16 07:48:07;;;;;;;;;32.25;31.50;;;;;;;;5097183;27;46357;-51
2021/12/16 07:50:32;;;;;;;;;33.00;31.00;;;;;;;;5099084;27;45500;-48
2021/12/16 07:52:57;;;;;;;;;36.50;31.25;;;;;;;;5098980;27;45323;-52
2021/12/16 07:55:23;;;;;;;;;41.50;34.50;;;;;;;;5099021;27;45402;-49
2021/12/16 07:57:48;;;;;;;;;37.25;35.00;;;;;;;;5098597;27;45361;-50
2021/12/16 08:00:18;;;;;;;;;34.50;34.00;;;;;;;;5098945;27;45310;-53
2021/12/16 08:02:44;;;;;;;;;40.50;35.50;;;;;;;;5099136;27;45544;-51
2021/12/16 08:05:10;;;;;;;;;42.75;37.25;;;;;;;;5098830;27;46074;-50
2021/12/16 08:07:35;;;;;;;;;37.00;35.00;;;;;;;;5099026;27;45372;-49
2021/12/16 08:10:01;;;;;;;;;36.00;33.50;;;;;;;;5098094;27;45287;-52
2021/12/16 08:12:26;;;;;;;;;38.25;34.25;;;;;;;;5098797;27;45277;-52
2021/12/16 08:14:51;;;;;;;;;36.25;34.25;;;;;;;;5098732;27;46143;-52
2021/12/16 08:17:17;;;;;;;;;33.25;30.25;;;;;;;;5098699;27;45308;-50
2021/12/16 08:19:45;;;;;;;;;43.50;37.75;;;;;;;;5098142;27;45503;-50
2021/12/16 08:22:10;;;;;;;;;33.75;31.50;;;;;;;;5098887;27;45364;-50
2021/12/16 08:24:35;;;;;;;;;34.75;32.00;;;;;;;;5098400;27;46202;-46
2021/12/16 08:27:00;;;;;;;;;38.50;34.25;;;;;;;;5097156;27;45305;-48
2021/12/16 08:29:26;;;;;;;;;38.00;33.25;;;;;;;;5097231;27;45228;-47
2021/12/16 08:31:52;;;;;;;;;35.50;35.00;;;;;;;;5098270;27;45640;-51
2021/12/16 08:34:18;;;;;;;;;35.50;32.75;;;;;;;;5098406;27;46343;-51
2021/12/16 08:36:43;;;;;;;;;32.25;28.00;;;;;;;;5098302;27;45427;-49
2021/12/16 08:39:09;;;;;;;;;31.75;31.00;;;;;;;;5098327;27;45351;-51
2021/12/16 08:41:54;;;;;;;;;40.50;31.25;;;;;;;;5097782;27;45442;-51
2021/12/16 08:44:20;;;;;;;;;30.50;30.50;;;;;;;;5097789;27;45498;-50
2021/12/16 08:46:47;;;;;;;;;29.25;28.75;;;;;;;;5098165;27;45394;-51
2021/12/16 08:49:12;;;;;;;;;34.50;31.00;;;;;;;;5097151;27;45388;-49
2021/12/16 08:51:46;;;;;;;;;32.75;32.75;;;;;;;;5098153;27;45301;-50
2021/12/16 08:54:11;;;;;;;;;36.25;31.25;;;;;;;;5097278;27;45213;-49
2021/12/16 08:56:37;;;;;;;;;39.00;34.50;;;;;;;;5097948;27;45212;-54
2021/12/16 08:59:03;;;;;;;;;31.00;29.00;;;;;;;;5098114;27;45299;-51
2021/12/16 09:01:30;;;;;;;;;23.75;21.50;;;;;;;;5097982;27;45296;-49
2021/12/16 09:03:56;;;;;;;;;28.50;27.75;;;;;;;;5097094;27;46990;-46
2021/12/16 09:06:21;;;;;;;;;33.75;33.25;;;;;;;;5097781;27;45496;-48
2021/12/16 09:08:47;;;;;;;;;31.25;31.25;;;;;;;;5097760;27;45436;-47
2021/12/16 09:11:18;;;;;;;;;29.25;29.25;;;;;;;;5098045;27;45440;-50
2021/12/16 09:13:43;;;;;;;;;29.50;29.50;;;;;;;;5097719;27;45407;-51
2021/12/16 09:16:10;;;;;;;;;33.25;27.75;;;;;;;;5097086;27;45434;-51
2021/12/16 09:18:41;;;;;;;;;30.33;29.00;;;;;;;;5097738;27;45247;-51
2021/12/16 09:21:07;;;;;;;;;25.75;22.25;;;;;;;;5097876;27;45201;-48
2021/12/16 09:23:32;;;;;;;;;28.00;25.50;;;;;;;;5097548;27;46243;-51
2021/12/16 09:25:57;;;;;;;;;24.00;24.00;;;;;;;;5097000;27;45407;-51
2021/12/16 09:28:23;;;;;;;;;23.33;21.67;;;;;;;;5096396;27;45496;-48
2021/12/16 09:30:48;;;;;;;;;23.67;22.00;;;;;;;;5097245;27;45505;-49
2021/12/16 09:33:16;;;;;;;;;25.00;22.67;;;;;;;;5097463;27;46057;-48
2021/12/16 09:35:43;;;;;;;;;30.33;28.00;;;;;;;;5097637;27;45465;-50
2021/12/16 09:38:10;;;;;;;;;21.00;18.00;;;;;;;;5097015;27;45374;-50
2021/12/16 09:40:38;;;;;;;;;23.33;21.00;;;;;;;;5097359;27;45310;-47
2021/12/16 09:43:04;;;;;;;;;23.67;21.33;;;;;;;;5097126;27;45698;-52
2021/12/16 09:45:29;;;;;;;;;21.33;20.67;;;;;;;;5097030;27;45391;-50
2021/12/16 09:47:54;;;;;;;;;20.67;20.33;;;;;;;;5096874;27;45358;-48
2021/12/16 09:50:23;;;;;;;;;23.33;22.33;;;;;;;;5097300;27;45344;-48
2021/12/16 09:52:48;;;;;;;;;20.33;18.00;;;;;;;;5096914;27;45293;-48
2021/12/16 09:55:13;;;;;;;;;23.67;21.67;;;;;;;;5097061;27;45246;-50
2021/12/16 09:57:38;;;;;;;;;20.67;20.67;;;;;;;;5097282;27;45237;-50
2021/12/16 10:00:05;;;;;;;;;21.00;20.67;;;;;;;;5096419;27;45558;-51
2021/12/16 10:02:32;;;;;;;;;20.67;19.00;;;;;;;;5096712;27;46657;-49
2021/12/16 10:04:57;;;;;;;;;20.33;20.33;;;;;;;;5096580;27;45459;-49
2021/12/16 10:07:25;;;;;;;;;22.67;20.33;;;;;;;;5096717;27;45358;-47
2021/12/16 10:09:51;;;;;;;;;23.00;22.00;;;;;;;;5095934;27;45456;-50
2021/12/16 10:12:23;;;;;;;;;20.67;20.67;;;;;;;;5096344;27;46674;-48
2021/12/16 10:17:23;;;;;;;;;27.67;22.67;;;;;;;;5096749;27;45313;-50
2021/12/16 10:17:40;;;;;;;;;23.00;23.00;;;;;;;;5096627;27;45235;-48
2021/12/16 10:20:09;;;;;;;;;27.67;24.33;;;;;;;;5096692;27;45379;-48
2021/12/16 10:22:40;;;;;;;;;20.00;19.33;;;;;;;;5096243;27;45289;-50
2021/12/16 10:25:15;;;;;;;;;28.33;25.33;;;;;;;;5096700;27;45272;-50
2021/12/16 10:27:51;;;;;;;;;30.00;27.00;;;;;;;;5096970;27;45328;-48
2021/12/16 10:30:16;;;;;;;;;22.00;22.00;;;;;;;;5096736;27;45266;-48
2021/12/16 10:32:43;;;;;;;;;24.67;24.67;;;;;;;;5096008;27;45506;-50
2021/12/16 10:35:11;;;;;;;;;19.00;16.00;;;;;;;;5096445;27;45259;-49
2021/12/16 10:37:38;;;;;;;;;25.67;25.67;;;;;;;;5096609;27;45370;-51
2021/12/16 10:40:22;;;;;;;;;23.75;22.50;;;;;;;;5096503;27;45369;-48
2021/12/16 10:42:47;;;;;;;;;28.00;27.67;;;;;;;;5095593;27;46140;-48
2021/12/16 10:45:30;;;;;;;;;23.67;23.00;;;;;;;;5096238;27;45353;-50
2021/12/16 10:48:09;;;;;;;;;25.00;25.00;;;;;;;;5096488;27;45309;-49
2021/12/16 10:50:49;;;;;;;;;32.50;30.25;;;;;;;;5096259;27;45216;-51
2021/12/16 10:53:15;;;;;;;;;29.75;26.50;;;;;;;;5095864;27;45460;-49
2021/12/16 10:55:59;;;;;;;;;37.50;34.00;;;;;;;;5095827;27;45395;-47
2021/12/16 10:58:43;;;;;;;;;26.67;25.33;;;;;;;;5096360;27;45302;-48
2021/12/16 11:01:28;;;;;;;;;25.00;23.50;;;;;;;;5095887;27;45323;-49
2021/12/16 11:03:53;;;;;;;;;26.50;24.00;;;;;;;;5094392;27;46789;-47
2021/12/16 11:06:34;;;;;;;;;29.75;26.75;;;;;;;;5095281;27;45352;-51
2021/12/16 11:09:18;;;;;;;;;32.50;29.00;;;;;;;;5095773;27;45324;-48
2021/12/16 11:11:43;;;;;;;;;25.00;23.33;;;;;;;;5095658;27;45325;-45
2021/12/16 11:14:08;;;;;;;;;24.33;24.00;;;;;;;;5098653;27;45395;-52
2021/12/16 11:16:34;;;;;;;;;27.25;25.50;;;;;;;;5098674;27;45467;-52
2021/12/16 11:19:00;;;;;;;;;26.50;25.25;;;;;;;;5099632;27;45404;-52
2021/12/16 11:21:39;;;;;;;;;30.75;26.75;;;;;;;;5099377;27;45385;-51
2021/12/16 11:24:21;;;;;;;;;39.00;34.00;;;;;;;;5099252;27;47153;-52
2021/12/16 11:26:47;;;;;;;;;31.00;26.75;;;;;;;;5098345;27;45279;-51
2021/12/16 11:29:12;;;;;;;;;30.00;26.25;;;;;;;;5099076;27;45297;-53
2021/12/16 11:31:39;;;;;;;;;28.50;26.50;;;;;;;;5098907;27;45332;-51
2021/12/16 11:34:07;;;;;;;;;27.00;24.67;;;;;;;;5099016;27;45434;-51
2021/12/16 11:36:54;;;;;;;;;29.00;27.25;;;;;;;;5099121;27;45377;-49
2021/12/16 11:39:21;;;;;;;;;30.25;30.25;;;;;;;;5097301;27;45299;-51
2021/12/16 11:41:48;;;;;;;;;31.25;31.25;;;;;;;;5098369;27;45580;-51
2021/12/16 11:44:14;;;;;;;;;33.75;30.50;;;;;;;;5098680;27;46098;-48
2021/12/16 11:46:45;;;;;;;;;27.00;25.75;;;;;;;;5098529;27;45455;-52
2021/12/16 11:49:10;;;;;;;;;27.67;25.33;;;;;;;;5098379;27;45231;-48
2021/12/16 11:51:41;;;;;;;;;25.25;25.00;;;;;;;;5098562;27;45234;-50
2021/12/16 11:54:14;;;;;;;;;31.50;30.50;;;;;;;;5098635;27;46527;-48
2021/12/16 11:56:46;;;;;;;;;30.33;29.33;;;;;;;;5098801;27;45357;-48
2021/12/16 11:59:11;;;;;;;;;29.25;29.25;;;;;;;;5098485;27;45270;-49
2021/12/16 12:01:39;;;;;;;;;27.67;27.67;;;;;;;;5098039;27;45457;-48
2021/12/16 12:04:07;;;;;;;;;30.25;29.50;;;;;;;;5097341;27;47142;-52
2021/12/16 12:06:33;;;;;;;;;33.25;32.50;;;;;;;;5098437;27;45258;-47
2021/12/16 12:08:59;;;;;;;;;31.00;28.33;;;;;;;;5098305;27;45378;-48
2021/12/16 12:11:27;;;;;;;;;32.25;31.00;;;;;;;;5097944;27;45349;-50
2021/12/16 12:13:56;;;;;;;;;32.25;29.25;;;;;;;;5098376;27;46310;-48
2021/12/16 12:16:42;;;;;;;;;32.25;30.50;;;;;;;;5098420;27;45343;-49
2021/12/16 12:19:12;;;;;;;;;35.75;32.00;;;;;;;;5097868;27;45286;-50
2021/12/16 12:21:39;;;;;;;;;61.50;51.00;;;;;;;;5097545;27;45373;-51
2021/12/16 12:24:04;;;;;;;;;55.00;45.00;;;;;;;;5097855;27;46187;-50
2021/12/16 12:26:31;;;;;;;;;41.20;38.00;;;;;;;;5098261;27;45394;-50
2021/12/16 12:28:58;;;;;;;;;31.00;29.00;;;;;;;;5098292;27;45309;-48
2021/12/16 12:31:24;;;;;;;;;31.00;29.25;;;;;;;;5097998;27;45296;-49
2021/12/16 12:33:50;;;;;;;;;36.75;31.50;;;;;;;;5097284;27;45555;-51
2021/12/16 12:36:16;;;;;;;;;36.50;31.50;;;;;;;;5098002;27;45274;-53
2021/12/16 12:38:41;;;;;;;;;37.00;31.50;;;;;;;;5098286;27;45185;-50
2021/12/16 12:41:06;;;;;;;;;41.25;33.75;;;;;;;;5097832;27;45344;-49
2021/12/16 12:43:33;;;;;;;;;35.75;32.00;;;;;;;;5097503;27;46207;-48
2021/12/16 12:45:59;;;;;;;;;31.75;30.50;;;;;;;;5097792;27;45353;-49
2021/12/16 12:48:24;;;;;;;;;42.25;37.25;;;;;;;;5096417;27;45361;-51
2021/12/16 12:50:51;;;;;;;;;48.75;41.25;;;;;;;;5097565;27;45499;-51
2021/12/16 12:53:22;;;;;;;;;42.00;37.25;;;;;;;;5097705;27;45424;-48
2021/12/16 12:55:50;;;;;;;;;30.33;30.33;;;;;;;;5097093;27;45394;-49
2021/12/16 12:58:18;;;;;;;;;31.00;25.33;;;;;;;;5097926;27;45358;-48
2021/12/16 13:00:45;;;;;;;;;32.50;29.50;;;;;;;;5097857;27;45434;-50
2021/12/16 13:03:17;;;;;;;;;33.33;29.67;;;;;;;;5097699;27;46223;-49
2021/12/16 13:05:49;;;;;;;;;27.33;24.33;;;;;;;;5097154;27;45503;-47
2021/12/16 13:08:14;;;;;;;;;33.00;32.00;;;;;;;;5097520;27;45282;-50
2021/12/16 13:10:44;;;;;;;;;29.50;28.25;;;;;;;;5097349;27;45321;-48
2021/12/16 13:13:46;;;;;;;;;32.33;29.00;;;;;;;;5097514;27;45826;-52
2021/12/16 13:24:41;;;;;;;;;31.50;29.25;;;;;;;;5097529;27;45384;-48
2021/12/16 13:27:20;;;;;;;;;32.75;29.25;;;;;;;;5097299;27;45519;-50
2021/12/16 13:30:38;;;;;;;;;34.25;32.25;;;;;;;;5097223;27;45347;-52
2021/12/16 13:32:46;;;;;;;;;25.25;24.25;;;;;;;;5096756;27;45579;-53
2021/12/16 13:35:33;;;;;;;;;28.33;27.00;;;;;;;;5096404;27;47175;-52
2021/12/16 13:37:59;;;;;;;;;28.33;25.67;;;;;;;;5096919;27;45395;-50
2021/12/16 13:40:25;;;;;;;;;30.00;27.00;;;;;;;;5096545;27;45284;-48
2021/12/16 13:42:55;;;;;;;;;28.00;25.33;;;;;;;;5096055;27;45313;-47
2021/12/16 13:45:53;;;;;;;;;31.67;25.67;;;;;;;;5097116;27;45391;-49
2021/12/16 14:06:12;;;;;;;;;25.00;23.33;;;;;;;;5096969;27;45331;-52
2021/12/16 14:08:04;;;;;;;;;28.00;22.33;;;;;;;;5088960;27;45446;-50
2021/12/16 14:10:34;;;;;;;;;30.67;26.33;;;;;;;;5096452;27;45499;-48
2021/12/16 14:25:02;;;;;;;;;26.67;25.33;;;;;;;;5096214;27;45302;-51
2021/12/16 14:38:50;;;;;;;;;29.00;24.67;;;;;;;;5096580;27;45337;-51
2021/12/16 14:41:36;;;;;;;;;23.67;22.33;;;;;;;;5095983;27;45279;-51
2021/12/16 14:45:11;;;;;;;;;29.00;24.00;;;;;;;;5096191;27;45164;-53
2021/12/16 14:47:17;;;;;;;;;26.67;25.00;;;;;;;;5097535;27;45322;-51
2021/12/16 14:49:45;;;;;;;;;29.00;26.67;;;;;;;;5099833;27;45360;-50
2021/12/16 14:52:18;;;;;;;;;25.33;25.33;;;;;;;;5099683;27;46144;-50
2021/12/16 14:54:49;;;;;;;;;29.50;25.25;;;;;;;;5098497;27;45256;-48
2021/12/16 14:57:19;;;;;;;;;27.00;26.00;;;;;;;;5097998;27;45343;-47
2021/12/16 14:59:44;;;;;;;;;26.67;24.33;;;;;;;;5099793;27;45268;-50
2021/12/16 15:02:11;;;;;;;;;30.00;26.00;;;;;;;;5099363;27;46307;-48
2021/12/16 15:04:36;;;;;;;;;18.33;17.33;;;;;;;;5099378;27;45396;-49
2021/12/16 15:07:06;;;;;;;;;31.00;29.33;;;;;;;;5099033;27;45343;-49
2021/12/16 15:09:35;;;;;;;;;29.67;28.00;;;;;;;;5099433;27;45384;-49
2021/12/16 15:44:48;;;;;;;;;35.50;31.25;;;;;;;;5099025;27;45387;-48
2021/12/16 15:47:14;;;;;;;;;41.00;36.00;;;;;;;;5098843;27;45378;-51
2021/12/16 15:49:39;;;;;;;;;36.50;33.75;;;;;;;;5099079;27;45633;-49
2021/12/16 15:52:04;;;;;;;;;35.50;34.50;;;;;;;;5098616;27;45408;-48
2021/12/16 15:54:33;;;;;;;;;37.50;34.75;;;;;;;;5098978;27;45434;-47
2021/12/16 15:56:59;;;;;;;;;33.00;31.75;;;;;;;;5098862;27;45396;-48
2021/12/16 15:59:28;;;;;;;;;34.50;33.50;;;;;;;;5097558;27;46582;-56
2021/12/16 16:01:54;;;;;;;;;33.00;33.00;;;;;;;;5096102;27;45413;-53
2021/12/16 16:04:27;;;;;;;;;38.00;37.00;;;;;;;;5098315;27;45392;-56
2021/12/16 16:06:56;;;;;;;;;39.75;34.25;;;;;;;;5098741;27;45350;-52
2021/12/16 16:09:21;;;;;;;;;37.00;34.00;;;;;;;;5098359;27;45454;-49
2021/12/16 16:11:50;;;;;;;;;37.75;33.25;;;;;;;;5098601;27;45612;-52
2021/12/16 16:14:16;;;;;;;;;41.75;37.00;;;;;;;;5098113;27;46108;-51
2021/12/16 16:16:49;;;;;;;;;35.00;34.00;;;;;;;;5098743;27;45410;-52
2021/12/16 16:19:21;;;;;;;;;36.75;35.00;;;;;;;;5098695;27;45474;-54
2021/12/16 16:21:48;;;;;;;;;37.25;35.00;;;;;;;;5098640;27;45374;-56
2021/12/16 16:24:32;;;;;;;;;37.25;35.75;;;;;;;;5097918;27;46027;-53
2021/12/16 16:26:59;;;;;;;;;36.25;33.00;;;;;;;;5098511;27;45358;-50
2021/12/16 16:29:26;;;;;;;;;42.50;36.50;;;;;;;;5097208;27;45288;-50
2021/12/16 16:31:52;;;;;;;;;39.00;32.25;;;;;;;;5098449;27;45564;-53
2021/12/16 16:34:18;;;;;;;;;42.75;37.50;;;;;;;;5098101;27;45917;-53
2021/12/16 16:36:46;;;;;;;;;37.75;35.25;;;;;;;;5098108;27;45370;-51
2021/12/16 16:39:12;;;;;;;;;35.00;32.25;;;;;;;;5098315;27;45148;-54
2021/12/16 16:41:40;;;;;;;;;54.00;44.50;;;;;;;;5098118;27;45537;-54
2021/12/16 16:44:07;;;;;;;;;37.50;35.25;;;;;;;;5097792;27;45443;-56
2021/12/16 16:46:42;;;;;;;;;33.00;33.00;;;;;;;;5097546;27;45353;-56
2021/12/16 16:49:10;;;;;;;;;39.75;35.50;;;;;;;;5098271;27;45255;-54
2021/12/16 16:51:39;;;;;;;;;40.75;36.00;;;;;;;;5098054;27;45441;-53
2021/12/16 16:54:08;;;;;;;;;44.25;37.25;;;;;;;;5096486;27;45474;-54
2021/12/16 16:56:39;;;;;;;;;38.25;36.50;;;;;;;;5097362;27;45386;-56
2021/12/16 16:59:05;;;;;;;;;37.00;33.00;;;;;;;;5097795;27;45314;-53
2021/12/16 17:01:31;;;;;;;;;38.75;35.50;;;;;;;;5097895;27;45590;-51
2021/12/16 17:03:56;;;;;;;;;39.25;33.50;;;;;;;;5097869;27;46066;-53
2021/12/16 17:06:21;;;;;;;;;39.50;35.75;;;;;;;;5098104;27;45301;-56
2021/12/16 17:08:47;;;;;;;;;42.75;37.25;;;;;;;;5096928;27;45300;-54
2021/12/16 17:11:17;;;;;;;;;40.25;37.00;;;;;;;;5096702;27;45320;-54
2021/12/16 17:18:44;;;;;;;;;33.50;31.75;;;;;;;;5097200;27;45262;-48
2021/12/16 17:21:27;;;;;;;;;34.25;32.75;;;;;;;;5097418;27;45619;-56
2021/12/16 17:23:57;;;;;;;;;33.50;30.00;;;;;;;;5097507;27;46005;-49
2021/12/16 17:26:24;;;;;;;;;28.75;28.25;;;;;;;;5097501;27;45316;-54
2021/12/16 17:28:51;;;;;;;;;29.33;29.00;;;;;;;;5097527;27;45399;-53
2021/12/16 17:31:27;;;;;;;;;33.25;31.75;;;;;;;;5096768;27;45449;-55
2021/12/16 17:34:03;;;;;;;;;37.25;33.00;;;;;;;;5097544;27;45392;-55
2021/12/16 17:36:31;;;;;;;;;30.75;30.75;;;;;;;;5097461;27;45445;-52
2021/12/16 17:39:05;;;;;;;;;33.75;31.25;;;;;;;;5097246;27;45427;-54
2021/12/16 17:41:30;;;;;;;;;28.25;25.25;;;;;;;;5096900;27;45404;-53
2021/12/16 17:43:55;;;;;;;;;30.25;25.00;;;;;;;;5097103;27;45303;-55
2021/12/16 17:46:22;;;;;;;;;32.50;30.50;;;;;;;;5097115;27;45350;-49
2021/12/16 17:48:48;;;;;;;;;32.00;28.00;;;;;;;;5097216;27;45408;-53
2021/12/16 17:51:13;;;;;;;;;45.25;38.25;;;;;;;;5096936;27;45477;-48
2021/12/16 17:53:46;;;;;;;;;29.00;26.60;;;;;;;;5096742;27;45420;-55
2021/12/16 17:56:12;;;;;;;;;28.25;26.25;;;;;;;;5096932;27;45310;-56
2021/12/16 17:58:39;;;;;;;;;29.25;27.00;;;;;;;;5097181;27;45344;-57
2021/12/16 18:01:10;;;;;;;;;29.25;27.75;;;;;;;;5097114;27;45443;-57
2021/12/16 18:03:47;;;;;;;;;30.25;28.00;;;;;;;;5096224;27;45449;-51
2021/12/16 18:06:15;;;;;;;;;29.00;28.00;;;;;;;;5096921;27;45418;-55
2021/12/16 18:08:43;;;;;;;;;18.75;17.50;;;;;;;;5096363;27;45345;-54
2021/12/16 18:11:15;;;;;;;;;30.50;30.25;;;;;;;;5096371;27;45318;-51
2021/12/16 18:13:42;;;;;;;;;32.50;31.75;;;;;;;;5095892;27;46310;-54
2021/12/16 18:16:08;;;;;;;;;29.00;29.00;;;;;;;;5096768;27;45283;-52